sensor_id;sensor_type;location;lat;lon;timestamp;P1;durP1;ratioP1;P2;durP2;ratioP2
80578;SDS011;69939;52.402;6.608;2023-06-22T00:02:18;16.75;;;9.73;;
80578;SDS011;69939;52.402;6.608;2023-06-22T00:04:46;13.80;;;9.27;;
80578;SDS011;69939;52.402;6.608;2023-06-22T00:07:13;12.90;;;9.50;;
80578;SDS011;69939;52.402;6.608;2023-06-22T00:09:40;11.18;;;8.80;;
80578;SDS011;69939;52.402;6.608;2023-06-22T00:12:08;12.05;;;8.35;;
80578;SDS011;69939;52.402;6.608;2023-06-22T00:14:35;12.10;;;8.35;;
80578;SDS011;69939;52.402;6.608;2023-06-22T00:17:03;11.90;;;8.13;;
80578;SDS011;69939;52.402;6.608;2023-06-22T00:19:30;12.98;;;8.68;;
80578;SDS011;69939;52.402;6.608;2023-06-22T00:21:57;11.88;;;8.70;;
80578;SDS011;69939;52.402;6.608;2023-06-22T00:24:25;12.20;;;8.80;;
80578;SDS011;69939;52.402;6.608;2023-06-22T00:26:51;12.27;;;9.02;;
80578;SDS011;69939;52.402;6.608;2023-06-22T00:29:18;11.27;;;7.95;;
80578;SDS011;69939;52.402;6.608;2023-06-22T00:31:45;11.93;;;8.93;;
80578;SDS011;69939;52.402;6.608;2023-06-22T00:34:15;13.38;;;9.68;;
80578;SDS011;69939;52.402;6.608;2023-06-22T00:36:42;12.70;;;9.02;;
80578;SDS011;69939;52.402;6.608;2023-06-22T00:39:09;11.88;;;8.43;;
80578;SDS011;69939;52.402;6.608;2023-06-22T00:41:37;13.43;;;9.27;;
80578;SDS011;69939;52.402;6.608;2023-06-22T00:44:03;13.18;;;9.68;;
80578;SDS011;69939;52.402;6.608;2023-06-22T00:46:31;13.70;;;9.73;;
80578;SDS011;69939;52.402;6.608;2023-06-22T00:48:59;14.25;;;9.45;;
80578;SDS011;69939;52.402;6.608;2023-06-22T00:51:27;17.90;;;10.10;;
80578;SDS011;69939;52.402;6.608;2023-06-22T00:53:54;16.17;;;9.85;;
80578;SDS011;69939;52.402;6.608;2023-06-22T00:56:22;16.13;;;10.55;;
80578;SDS011;69939;52.402;6.608;2023-06-22T00:58:51;13.40;;;8.93;;
80578;SDS011;69939;52.402;6.608;2023-06-22T01:01:19;17.10;;;9.75;;
80578;SDS011;69939;52.402;6.608;2023-06-22T01:06:16;11.13;;;8.00;;
80578;SDS011;69939;52.402;6.608;2023-06-22T01:08:56;11.48;;;8.18;;
80578;SDS011;69939;52.402;6.608;2023-06-22T01:11:35;12.60;;;9.13;;
80578;SDS011;69939;52.402;6.608;2023-06-22T01:14:11;12.48;;;8.25;;
80578;SDS011;69939;52.402;6.608;2023-06-22T01:16:44;10.93;;;7.70;;
80578;SDS011;69939;52.402;6.608;2023-06-22T01:19:20;8.68;;;7.05;;
80578;SDS011;69939;52.402;6.608;2023-06-22T01:22:01;11.25;;;7.78;;
80578;SDS011;69939;52.402;6.608;2023-06-22T01:24:33;10.07;;;8.20;;
80578;SDS011;69939;52.402;6.608;2023-06-22T01:27:19;10.07;;;7.68;;
80578;SDS011;69939;52.402;6.608;2023-06-22T01:30:04;7.03;;;6.30;;
80578;SDS011;69939;52.402;6.608;2023-06-22T01:32:35;7.38;;;6.63;;
80578;SDS011;69939;52.402;6.608;2023-06-22T01:35:05;8.45;;;6.38;;
80578;SDS011;69939;52.402;6.608;2023-06-22T01:37:37;7.13;;;6.15;;
80578;SDS011;69939;52.402;6.608;2023-06-22T01:40:05;7.57;;;6.88;;
80578;SDS011;69939;52.402;6.608;2023-06-22T01:42:36;8.43;;;7.25;;
80578;SDS011;69939;52.402;6.608;2023-06-22T01:45:06;9.02;;;7.97;;
80578;SDS011;69939;52.402;6.608;2023-06-22T01:47:36;8.23;;;7.35;;
80578;SDS011;69939;52.402;6.608;2023-06-22T01:50:04;8.57;;;7.57;;
80578;SDS011;69939;52.402;6.608;2023-06-22T01:52:32;8.32;;;7.35;;
80578;SDS011;69939;52.402;6.608;2023-06-22T01:55:00;7.72;;;6.93;;
80578;SDS011;69939;52.402;6.608;2023-06-22T01:57:27;10.68;;;8.80;;
80578;SDS011;69939;52.402;6.608;2023-06-22T01:59:57;9.18;;;8.13;;
80578;SDS011;69939;52.402;6.608;2023-06-22T02:02:30;8.85;;;8.00;;
80578;SDS011;69939;52.402;6.608;2023-06-22T02:05:05;8.45;;;7.65;;
80578;SDS011;69939;52.402;6.608;2023-06-22T02:07:41;8.73;;;7.85;;
80578;SDS011;69939;52.402;6.608;2023-06-22T02:10:15;9.48;;;8.02;;
80578;SDS011;69939;52.402;6.608;2023-06-22T02:12:47;8.48;;;7.63;;
80578;SDS011;69939;52.402;6.608;2023-06-22T02:15:17;8.55;;;7.65;;
80578;SDS011;69939;52.402;6.608;2023-06-22T02:17:45;9.65;;;8.65;;
80578;SDS011;69939;52.402;6.608;2023-06-22T02:20:14;8.98;;;8.02;;
80578;SDS011;69939;52.402;6.608;2023-06-22T02:22:41;9.13;;;8.20;;
80578;SDS011;69939;52.402;6.608;2023-06-22T02:25:08;9.73;;;8.82;;
80578;SDS011;69939;52.402;6.608;2023-06-22T02:27:35;8.48;;;7.68;;
80578;SDS011;69939;52.402;6.608;2023-06-22T02:30:05;8.80;;;7.90;;
80578;SDS011;69939;52.402;6.608;2023-06-22T02:32:34;8.73;;;7.93;;
80578;SDS011;69939;52.402;6.608;2023-06-22T02:35:03;8.50;;;7.70;;
80578;SDS011;69939;52.402;6.608;2023-06-22T02:37:31;9.10;;;8.20;;
80578;SDS011;69939;52.402;6.608;2023-06-22T02:39:58;6.40;;;5.60;;
80578;SDS011;69939;52.402;6.608;2023-06-22T02:42:24;7.13;;;6.43;;
80578;SDS011;69939;52.402;6.608;2023-06-22T02:44:52;8.55;;;7.78;;
80578;SDS011;69939;52.402;6.608;2023-06-22T02:47:21;11.18;;;8.68;;
80578;SDS011;69939;52.402;6.608;2023-06-22T02:49:48;7.72;;;7.00;;
80578;SDS011;69939;52.402;6.608;2023-06-22T02:52:16;8.73;;;7.88;;
80578;SDS011;69939;52.402;6.608;2023-06-22T02:54:42;9.18;;;8.38;;
80578;SDS011;69939;52.402;6.608;2023-06-22T02:57:10;8.85;;;8.05;;
80578;SDS011;69939;52.402;6.608;2023-06-22T02:59:39;8.32;;;7.53;;
80578;SDS011;69939;52.402;6.608;2023-06-22T03:02:05;7.25;;;6.55;;
80578;SDS011;69939;52.402;6.608;2023-06-22T03:04:33;7.88;;;7.10;;
80578;SDS011;69939;52.402;6.608;2023-06-22T03:07:00;8.70;;;7.80;;
80578;SDS011;69939;52.402;6.608;2023-06-22T03:09:28;8.38;;;7.57;;
80578;SDS011;69939;52.402;6.608;2023-06-22T03:11:55;8.18;;;7.38;;
80578;SDS011;69939;52.402;6.608;2023-06-22T03:14:22;8.20;;;7.47;;
80578;SDS011;69939;52.402;6.608;2023-06-22T03:16:49;7.60;;;6.90;;
80578;SDS011;69939;52.402;6.608;2023-06-22T03:19:16;7.75;;;7.00;;
80578;SDS011;69939;52.402;6.608;2023-06-22T03:21:46;8.02;;;7.22;;
80578;SDS011;69939;52.402;6.608;2023-06-22T03:24:14;7.20;;;6.10;;
80578;SDS011;69939;52.402;6.608;2023-06-22T03:26:42;8.73;;;7.93;;
80578;SDS011;69939;52.402;6.608;2023-06-22T03:29:11;6.65;;;5.90;;
80578;SDS011;69939;52.402;6.608;2023-06-22T03:31:40;7.65;;;6.95;;
80578;SDS011;69939;52.402;6.608;2023-06-22T03:34:07;7.13;;;6.43;;
80578;SDS011;69939;52.402;6.608;2023-06-22T03:36:34;7.35;;;6.75;;
80578;SDS011;69939;52.402;6.608;2023-06-22T03:39:01;7.88;;;7.18;;
80578;SDS011;69939;52.402;6.608;2023-06-22T03:41:28;4.35;;;3.70;;
80578;SDS011;69939;52.402;6.608;2023-06-22T03:43:56;4.88;;;4.47;;
80578;SDS011;69939;52.402;6.608;2023-06-22T03:46:23;6.68;;;6.10;;
80578;SDS011;69939;52.402;6.608;2023-06-22T03:48:50;7.25;;;6.47;;
80578;SDS011;69939;52.402;6.608;2023-06-22T03:51:17;7.22;;;6.50;;
80578;SDS011;69939;52.402;6.608;2023-06-22T03:53:44;6.40;;;5.80;;
80578;SDS011;69939;52.402;6.608;2023-06-22T03:56:13;7.30;;;6.70;;
80578;SDS011;69939;52.402;6.608;2023-06-22T03:58:45;8.65;;;7.85;;
80578;SDS011;69939;52.402;6.608;2023-06-22T04:01:14;6.68;;;6.07;;
80578;SDS011;69939;52.402;6.608;2023-06-22T04:03:42;6.72;;;6.13;;
80578;SDS011;69939;52.402;6.608;2023-06-22T04:06:09;5.53;;;5.03;;
80578;SDS011;69939;52.402;6.608;2023-06-22T04:08:36;4.57;;;4.13;;
80578;SDS011;69939;52.402;6.608;2023-06-22T04:11:02;6.43;;;5.82;;
80578;SDS011;69939;52.402;6.608;2023-06-22T04:13:30;7.93;;;7.10;;
80578;SDS011;69939;52.402;6.608;2023-06-22T04:15:57;7.45;;;6.75;;
80578;SDS011;69939;52.402;6.608;2023-06-22T04:18:25;7.85;;;7.10;;
80578;SDS011;69939;52.402;6.608;2023-06-22T04:20:51;7.43;;;6.72;;
80578;SDS011;69939;52.402;6.608;2023-06-22T04:23:18;8.07;;;7.28;;
80578;SDS011;69939;52.402;6.608;2023-06-22T04:25:45;6.55;;;5.93;;
80578;SDS011;69939;52.402;6.608;2023-06-22T04:28:12;7.88;;;7.07;;
80578;SDS011;69939;52.402;6.608;2023-06-22T04:30:40;7.28;;;6.57;;
80578;SDS011;69939;52.402;6.608;2023-06-22T04:33:11;7.85;;;7.13;;
80578;SDS011;69939;52.402;6.608;2023-06-22T04:35:40;7.20;;;6.50;;
80578;SDS011;69939;52.402;6.608;2023-06-22T04:38:11;7.65;;;6.95;;
80578;SDS011;69939;52.402;6.608;2023-06-22T04:40:39;7.32;;;6.63;;
80578;SDS011;69939;52.402;6.608;2023-06-22T04:43:06;7.90;;;7.20;;
80578;SDS011;69939;52.402;6.608;2023-06-22T04:45:35;7.80;;;7.07;;
80578;SDS011;69939;52.402;6.608;2023-06-22T04:48:05;6.95;;;5.90;;
80578;SDS011;69939;52.402;6.608;2023-06-22T04:50:33;6.00;;;5.45;;
80578;SDS011;69939;52.402;6.608;2023-06-22T04:53:05;8.07;;;7.28;;
80578;SDS011;69939;52.402;6.608;2023-06-22T04:55:32;7.43;;;6.72;;
80578;SDS011;69939;52.402;6.608;2023-06-22T04:57:59;6.85;;;6.20;;
80578;SDS011;69939;52.402;6.608;2023-06-22T05:00:29;9.35;;;8.27;;
80578;SDS011;69939;52.402;6.608;2023-06-22T05:02:57;7.53;;;6.80;;
80578;SDS011;69939;52.402;6.608;2023-06-22T05:05:24;8.30;;;7.45;;
80578;SDS011;69939;52.402;6.608;2023-06-22T05:07:51;7.55;;;6.38;;
80578;SDS011;69939;52.402;6.608;2023-06-22T05:10:21;7.50;;;6.80;;
80578;SDS011;69939;52.402;6.608;2023-06-22T05:12:47;7.30;;;6.53;;
80578;SDS011;69939;52.402;6.608;2023-06-22T05:15:14;7.00;;;6.20;;
80578;SDS011;69939;52.402;6.608;2023-06-22T05:17:41;8.68;;;7.80;;
80578;SDS011;69939;52.402;6.608;2023-06-22T05:20:12;10.00;;;9.00;;
80578;SDS011;69939;52.402;6.608;2023-06-22T05:22:43;6.15;;;5.50;;
80578;SDS011;69939;52.402;6.608;2023-06-22T05:25:10;10.68;;;9.40;;
80578;SDS011;69939;52.402;6.608;2023-06-22T05:27:39;11.02;;;9.63;;
80578;SDS011;69939;52.402;6.608;2023-06-22T05:30:06;10.70;;;8.52;;
80578;SDS011;69939;52.402;6.608;2023-06-22T05:32:34;12.00;;;10.57;;
80578;SDS011;69939;52.402;6.608;2023-06-22T05:35:02;19.42;;;12.73;;
80578;SDS011;69939;52.402;6.608;2023-06-22T05:37:29;17.10;;;10.00;;
80578;SDS011;69939;52.402;6.608;2023-06-22T05:39:56;18.08;;;13.18;;
80578;SDS011;69939;52.402;6.608;2023-06-22T05:42:23;17.83;;;11.55;;
80578;SDS011;69939;52.402;6.608;2023-06-22T05:44:52;20.45;;;13.00;;
80578;SDS011;69939;52.402;6.608;2023-06-22T05:47:19;17.38;;;12.93;;
80578;SDS011;69939;52.402;6.608;2023-06-22T05:49:47;15.90;;;11.65;;
80578;SDS011;69939;52.402;6.608;2023-06-22T05:52:14;14.93;;;13.32;;
80578;SDS011;69939;52.402;6.608;2023-06-22T05:54:41;15.50;;;11.23;;
80578;SDS011;69939;52.402;6.608;2023-06-22T05:57:08;13.70;;;11.75;;
80578;SDS011;69939;52.402;6.608;2023-06-22T05:59:34;13.40;;;11.02;;
80578;SDS011;69939;52.402;6.608;2023-06-22T06:02:03;12.20;;;10.57;;
80578;SDS011;69939;52.402;6.608;2023-06-22T06:04:30;15.57;;;10.55;;
80578;SDS011;69939;52.402;6.608;2023-06-22T06:06:57;14.02;;;12.32;;
80578;SDS011;69939;52.402;6.608;2023-06-22T06:09:23;14.00;;;11.43;;
80578;SDS011;69939;52.402;6.608;2023-06-22T06:11:50;12.75;;;11.10;;
80578;SDS011;69939;52.402;6.608;2023-06-22T06:14:17;13.27;;;11.77;;
80578;SDS011;69939;52.402;6.608;2023-06-22T06:16:43;10.68;;;9.30;;
80578;SDS011;69939;52.402;6.608;2023-06-22T06:19:11;10.05;;;7.03;;
80578;SDS011;69939;52.402;6.608;2023-06-22T06:21:38;10.40;;;9.35;;
80578;SDS011;69939;52.402;6.608;2023-06-22T06:24:05;11.98;;;10.13;;
80578;SDS011;69939;52.402;6.608;2023-06-22T06:26:32;8.75;;;7.30;;
80578;SDS011;69939;52.402;6.608;2023-06-22T06:29:01;9.48;;;8.52;;
80578;SDS011;69939;52.402;6.608;2023-06-22T06:31:28;9.98;;;8.98;;
80578;SDS011;69939;52.402;6.608;2023-06-22T06:33:55;7.57;;;6.47;;
80578;SDS011;69939;52.402;6.608;2023-06-22T06:36:23;8.93;;;7.80;;
80578;SDS011;69939;52.402;6.608;2023-06-22T06:38:50;9.00;;;8.10;;
80578;SDS011;69939;52.402;6.608;2023-06-22T06:41:16;8.25;;;7.22;;
80578;SDS011;69939;52.402;6.608;2023-06-22T06:43:43;6.53;;;5.82;;
80578;SDS011;69939;52.402;6.608;2023-06-22T06:46:10;7.75;;;6.22;;
80578;SDS011;69939;52.402;6.608;2023-06-22T06:48:37;8.13;;;7.28;;
80578;SDS011;69939;52.402;6.608;2023-06-22T06:51:04;8.00;;;7.07;;
80578;SDS011;69939;52.402;6.608;2023-06-22T06:53:35;8.30;;;7.50;;
80578;SDS011;69939;52.402;6.608;2023-06-22T06:56:02;7.20;;;6.38;;
80578;SDS011;69939;52.402;6.608;2023-06-22T06:58:30;7.35;;;6.38;;
80578;SDS011;69939;52.402;6.608;2023-06-22T07:00:57;8.50;;;7.70;;
80578;SDS011;69939;52.402;6.608;2023-06-22T07:03:23;7.15;;;6.45;;
80578;SDS011;69939;52.402;6.608;2023-06-22T07:05:50;7.50;;;6.80;;
80578;SDS011;69939;52.402;6.608;2023-06-22T07:08:17;7.10;;;6.40;;
80578;SDS011;69939;52.402;6.608;2023-06-22T07:10:47;7.60;;;6.90;;
80578;SDS011;69939;52.402;6.608;2023-06-22T07:13:14;4.88;;;4.38;;
80578;SDS011;69939;52.402;6.608;2023-06-22T07:18:09;5.80;;;5.20;;
80578;SDS011;69939;52.402;6.608;2023-06-22T07:20:36;6.75;;;6.18;;
80578;SDS011;69939;52.402;6.608;2023-06-22T07:23:04;6.03;;;5.43;;
80578;SDS011;69939;52.402;6.608;2023-06-22T07:25:31;7.80;;;7.10;;
80578;SDS011;69939;52.402;6.608;2023-06-22T07:28:00;8.30;;;7.50;;
80578;SDS011;69939;52.402;6.608;2023-06-22T07:30:29;7.72;;;6.85;;
80578;SDS011;69939;52.402;6.608;2023-06-22T07:32:57;8.02;;;7.32;;
80578;SDS011;69939;52.402;6.608;2023-06-22T07:35:29;7.25;;;6.30;;
80578;SDS011;69939;52.402;6.608;2023-06-22T07:37:56;8.48;;;7.38;;
80578;SDS011;69939;52.402;6.608;2023-06-22T07:40:22;6.88;;;6.18;;
80578;SDS011;69939;52.402;6.608;2023-06-22T07:42:49;8.63;;;7.78;;
80578;SDS011;69939;52.402;6.608;2023-06-22T07:45:19;7.75;;;6.35;;
80578;SDS011;69939;52.402;6.608;2023-06-22T07:47:46;8.00;;;7.28;;
80578;SDS011;69939;52.402;6.608;2023-06-22T07:50:12;8.40;;;7.45;;
80578;SDS011;69939;52.402;6.608;2023-06-22T07:52:39;7.28;;;6.68;;
80578;SDS011;69939;52.402;6.608;2023-06-22T07:55:06;6.70;;;5.68;;
80578;SDS011;69939;52.402;6.608;2023-06-22T07:57:34;8.70;;;7.70;;
80578;SDS011;69939;52.402;6.608;2023-06-22T08:00:02;7.70;;;7.00;;
80578;SDS011;69939;52.402;6.608;2023-06-22T08:02:39;8.30;;;7.47;;
80578;SDS011;69939;52.402;6.608;2023-06-22T08:05:06;7.93;;;7.22;;
80578;SDS011;69939;52.402;6.608;2023-06-22T08:07:34;6.95;;;6.05;;
80578;SDS011;69939;52.402;6.608;2023-06-22T08:10:02;7.20;;;6.20;;
80578;SDS011;69939;52.402;6.608;2023-06-22T08:12:30;8.05;;;7.25;;
80578;SDS011;69939;52.402;6.608;2023-06-22T08:14:57;8.32;;;7.53;;
80578;SDS011;69939;52.402;6.608;2023-06-22T08:17:24;9.20;;;7.07;;
80578;SDS011;69939;52.402;6.608;2023-06-22T08:19:52;6.25;;;5.65;;
80578;SDS011;69939;52.402;6.608;2023-06-22T08:22:19;6.53;;;5.32;;
80578;SDS011;69939;52.402;6.608;2023-06-22T08:24:45;5.88;;;4.38;;
80578;SDS011;69939;52.402;6.608;2023-06-22T08:27:12;7.90;;;6.30;;
80578;SDS011;69939;52.402;6.608;2023-06-22T08:29:39;7.03;;;6.07;;
80578;SDS011;69939;52.402;6.608;2023-06-22T08:32:07;7.90;;;7.15;;
80578;SDS011;69939;52.402;6.608;2023-06-22T08:34:34;7.95;;;7.25;;
80578;SDS011;69939;52.402;6.608;2023-06-22T08:37:03;8.15;;;7.38;;
80578;SDS011;69939;52.402;6.608;2023-06-22T08:39:31;7.65;;;6.90;;
80578;SDS011;69939;52.402;6.608;2023-06-22T08:41:58;7.53;;;6.63;;
80578;SDS011;69939;52.402;6.608;2023-06-22T08:44:25;7.28;;;6.07;;
80578;SDS011;69939;52.402;6.608;2023-06-22T08:46:52;5.57;;;5.07;;
80578;SDS011;69939;52.402;6.608;2023-06-22T08:49:19;8.73;;;7.32;;
80578;SDS011;69939;52.402;6.608;2023-06-22T08:51:46;9.02;;;7.78;;
80578;SDS011;69939;52.402;6.608;2023-06-22T08:54:15;6.63;;;6.03;;
80578;SDS011;69939;52.402;6.608;2023-06-22T08:56:42;5.50;;;4.80;;
80578;SDS011;69939;52.402;6.608;2023-06-22T08:59:09;8.88;;;6.75;;
80578;SDS011;69939;52.402;6.608;2023-06-22T09:01:36;6.88;;;6.28;;
80578;SDS011;69939;52.402;6.608;2023-06-22T09:04:03;7.32;;;6.50;;
80578;SDS011;69939;52.402;6.608;2023-06-22T09:06:32;8.63;;;6.93;;
80578;SDS011;69939;52.402;6.608;2023-06-22T09:08:59;7.80;;;6.82;;
80578;SDS011;69939;52.402;6.608;2023-06-22T09:11:27;6.60;;;4.53;;
80578;SDS011;69939;52.402;6.608;2023-06-22T09:13:53;8.00;;;7.13;;
80578;SDS011;69939;52.402;6.608;2023-06-22T09:16:20;8.10;;;7.30;;
80578;SDS011;69939;52.402;6.608;2023-06-22T09:18:47;8.40;;;7.00;;
80578;SDS011;69939;52.402;6.608;2023-06-22T09:21:14;7.80;;;6.72;;
80578;SDS011;69939;52.402;6.608;2023-06-22T09:23:41;7.78;;;6.28;;
80578;SDS011;69939;52.402;6.608;2023-06-22T09:26:08;4.93;;;4.22;;
80578;SDS011;69939;52.402;6.608;2023-06-22T09:28:37;7.78;;;6.97;;
80578;SDS011;69939;52.402;6.608;2023-06-22T09:31:04;8.00;;;7.20;;
80578;SDS011;69939;52.402;6.608;2023-06-22T09:33:31;8.15;;;7.15;;
80578;SDS011;69939;52.402;6.608;2023-06-22T09:35:58;9.20;;;7.47;;
80578;SDS011;69939;52.402;6.608;2023-06-22T09:38:25;9.07;;;7.70;;
80578;SDS011;69939;52.402;6.608;2023-06-22T09:40:52;8.52;;;7.70;;
80578;SDS011;69939;52.402;6.608;2023-06-22T09:43:19;8.90;;;8.00;;
80578;SDS011;69939;52.402;6.608;2023-06-22T09:45:47;7.45;;;6.75;;
80578;SDS011;69939;52.402;6.608;2023-06-22T09:48:14;6.05;;;5.45;;
80578;SDS011;69939;52.402;6.608;2023-06-22T09:50:40;6.32;;;5.68;;
80578;SDS011;69939;52.402;6.608;2023-06-22T09:53:07;6.30;;;5.70;;
80578;SDS011;69939;52.402;6.608;2023-06-22T09:55:34;8.65;;;7.30;;
80578;SDS011;69939;52.402;6.608;2023-06-22T09:58:00;7.95;;;7.15;;
80578;SDS011;69939;52.402;6.608;2023-06-22T10:00:27;5.28;;;4.68;;
80578;SDS011;69939;52.402;6.608;2023-06-22T10:02:55;6.90;;;6.22;;
80578;SDS011;69939;52.402;6.608;2023-06-22T10:05:23;6.90;;;6.13;;
80578;SDS011;69939;52.402;6.608;2023-06-22T10:07:50;7.00;;;6.30;;
80578;SDS011;69939;52.402;6.608;2023-06-22T10:10:17;9.02;;;6.72;;
80578;SDS011;69939;52.402;6.608;2023-06-22T10:12:45;5.45;;;4.88;;
80578;SDS011;69939;52.402;6.608;2023-06-22T10:15:16;5.70;;;4.97;;
80578;SDS011;69939;52.402;6.608;2023-06-22T10:17:43;8.60;;;6.60;;
80578;SDS011;69939;52.402;6.608;2023-06-22T10:20:11;8.27;;;6.30;;
80578;SDS011;69939;52.402;6.608;2023-06-22T10:22:38;6.18;;;5.35;;
80578;SDS011;69939;52.402;6.608;2023-06-22T10:25:06;8.40;;;7.20;;
80578;SDS011;69939;52.402;6.608;2023-06-22T10:27:34;8.80;;;7.90;;
80578;SDS011;69939;52.402;6.608;2023-06-22T10:30:01;6.35;;;5.50;;
80578;SDS011;69939;52.402;6.608;2023-06-22T10:34:56;5.13;;;4.63;;
80578;SDS011;69939;52.402;6.608;2023-06-22T10:37:24;8.02;;;7.22;;
80578;SDS011;69939;52.402;6.608;2023-06-22T10:39:51;7.18;;;5.20;;
80578;SDS011;69939;52.402;6.608;2023-06-22T10:42:18;8.82;;;7.03;;
80578;SDS011;69939;52.402;6.608;2023-06-22T10:44:45;8.25;;;7.28;;
80578;SDS011;69939;52.402;6.608;2023-06-22T10:47:12;8.10;;;6.35;;
80578;SDS011;69939;52.402;6.608;2023-06-22T10:49:39;8.90;;;6.80;;
80578;SDS011;69939;52.402;6.608;2023-06-22T10:52:07;7.63;;;6.50;;
80578;SDS011;69939;52.402;6.608;2023-06-22T10:54:36;8.93;;;6.40;;
80578;SDS011;69939;52.402;6.608;2023-06-22T10:57:04;8.38;;;7.40;;
80578;SDS011;69939;52.402;6.608;2023-06-22T10:59:31;8.52;;;6.85;;
80578;SDS011;69939;52.402;6.608;2023-06-22T11:01:58;7.53;;;6.80;;
80578;SDS011;69939;52.402;6.608;2023-06-22T11:04:25;9.32;;;7.07;;
80578;SDS011;69939;52.402;6.608;2023-06-22T11:06:51;7.75;;;6.55;;
80578;SDS011;69939;52.402;6.608;2023-06-22T11:09:18;7.95;;;5.47;;
80578;SDS011;69939;52.402;6.608;2023-06-22T11:11:47;8.38;;;7.10;;
80578;SDS011;69939;52.402;6.608;2023-06-22T11:14:18;7.85;;;6.80;;
80578;SDS011;69939;52.402;6.608;2023-06-22T11:16:45;7.70;;;6.85;;
80578;SDS011;69939;52.402;6.608;2023-06-22T11:19:12;8.88;;;6.18;;
80578;SDS011;69939;52.402;6.608;2023-06-22T11:21:39;8.48;;;5.93;;
80578;SDS011;69939;52.402;6.608;2023-06-22T11:24:06;7.82;;;6.75;;
80578;SDS011;69939;52.402;6.608;2023-06-22T11:26:33;8.00;;;7.20;;
80578;SDS011;69939;52.402;6.608;2023-06-22T11:29:01;6.43;;;5.82;;
80578;SDS011;69939;52.402;6.608;2023-06-22T11:31:30;10.43;;;7.60;;
80578;SDS011;69939;52.402;6.608;2023-06-22T11:33:57;8.05;;;6.63;;
80578;SDS011;69939;52.402;6.608;2023-06-22T11:36:24;5.63;;;4.25;;
80578;SDS011;69939;52.402;6.608;2023-06-22T11:38:51;7.22;;;6.45;;
80578;SDS011;69939;52.402;6.608;2023-06-22T11:41:19;5.47;;;4.07;;
80578;SDS011;69939;52.402;6.608;2023-06-22T11:43:45;7.10;;;5.88;;
80578;SDS011;69939;52.402;6.608;2023-06-22T11:46:14;5.60;;;4.60;;
80578;SDS011;69939;52.402;6.608;2023-06-22T11:48:40;5.57;;;4.70;;
80578;SDS011;69939;52.402;6.608;2023-06-22T11:51:07;7.93;;;6.22;;
80578;SDS011;69939;52.402;6.608;2023-06-22T11:53:34;7.70;;;6.38;;
80578;SDS011;69939;52.402;6.608;2023-06-22T11:56:01;5.47;;;4.50;;
80578;SDS011;69939;52.402;6.608;2023-06-22T11:58:27;7.25;;;4.90;;
80578;SDS011;69939;52.402;6.608;2023-06-22T12:00:54;8.20;;;5.90;;
80578;SDS011;69939;52.402;6.608;2023-06-22T12:03:22;4.60;;;3.63;;
80578;SDS011;69939;52.402;6.608;2023-06-22T12:05:49;5.35;;;4.78;;
80578;SDS011;69939;52.402;6.608;2023-06-22T12:08:17;6.28;;;5.35;;
80578;SDS011;69939;52.402;6.608;2023-06-22T12:10:43;8.73;;;5.72;;
80578;SDS011;69939;52.402;6.608;2023-06-22T12:13:10;5.65;;;4.70;;
80578;SDS011;69939;52.402;6.608;2023-06-22T12:15:37;6.68;;;3.60;;
80578;SDS011;69939;52.402;6.608;2023-06-22T12:18:04;7.30;;;5.38;;
80578;SDS011;69939;52.402;6.608;2023-06-22T12:20:32;5.85;;;4.95;;
80578;SDS011;69939;52.402;6.608;2023-06-22T12:22:59;7.40;;;5.32;;
80578;SDS011;69939;52.402;6.608;2023-06-22T12:25:25;7.18;;;4.80;;
80578;SDS011;69939;52.402;6.608;2023-06-22T12:27:52;5.57;;;4.07;;
80578;SDS011;69939;52.402;6.608;2023-06-22T12:30:19;6.50;;;4.65;;
80578;SDS011;69939;52.402;6.608;2023-06-22T12:32:46;5.65;;;4.35;;
80578;SDS011;69939;52.402;6.608;2023-06-22T12:35:12;6.85;;;3.58;;
80578;SDS011;69939;52.402;6.608;2023-06-22T12:37:41;8.55;;;6.05;;
80578;SDS011;69939;52.402;6.608;2023-06-22T12:40:09;7.57;;;6.72;;
80578;SDS011;69939;52.402;6.608;2023-06-22T12:42:36;7.72;;;5.88;;
80578;SDS011;69939;52.402;6.608;2023-06-22T12:45:03;8.75;;;6.00;;
80578;SDS011;69939;52.402;6.608;2023-06-22T12:47:31;6.28;;;4.32;;
80578;SDS011;69939;52.402;6.608;2023-06-22T12:49:58;7.47;;;5.65;;
80578;SDS011;69939;52.402;6.608;2023-06-22T12:52:25;4.93;;;4.43;;
80578;SDS011;69939;52.402;6.608;2023-06-22T12:54:53;7.45;;;5.70;;
80578;SDS011;69939;52.402;6.608;2023-06-22T12:57:20;9.65;;;4.80;;
80578;SDS011;69939;52.402;6.608;2023-06-22T12:59:47;7.57;;;5.22;;
80578;SDS011;69939;52.402;6.608;2023-06-22T13:02:13;5.65;;;4.80;;
80578;SDS011;69939;52.402;6.608;2023-06-22T13:04:40;7.28;;;5.60;;
80578;SDS011;69939;52.402;6.608;2023-06-22T13:07:08;6.35;;;5.72;;
80578;SDS011;69939;52.402;6.608;2023-06-22T13:09:35;7.07;;;6.22;;
80578;SDS011;69939;52.402;6.608;2023-06-22T13:12:04;5.93;;;4.85;;
80578;SDS011;69939;52.402;6.608;2023-06-22T13:14:32;7.15;;;6.05;;
80578;SDS011;69939;52.402;6.608;2023-06-22T13:16:59;8.82;;;6.90;;
80578;SDS011;69939;52.402;6.608;2023-06-22T13:19:25;9.77;;;6.50;;
80578;SDS011;69939;52.402;6.608;2023-06-22T13:21:53;7.63;;;6.45;;
80578;SDS011;69939;52.402;6.608;2023-06-22T13:24:20;8.85;;;7.40;;
80578;SDS011;69939;52.402;6.608;2023-06-22T13:26:47;9.73;;;8.18;;
80578;SDS011;69939;52.402;6.608;2023-06-22T13:29:15;10.27;;;8.48;;
80578;SDS011;69939;52.402;6.608;2023-06-22T13:31:41;12.30;;;9.20;;
80578;SDS011;69939;52.402;6.608;2023-06-22T13:34:08;13.00;;;9.40;;
80578;SDS011;69939;52.402;6.608;2023-06-22T13:36:35;10.38;;;8.30;;
80578;SDS011;69939;52.402;6.608;2023-06-22T13:39:01;13.13;;;9.95;;
80578;SDS011;69939;52.402;6.608;2023-06-22T13:41:28;13.80;;;9.32;;
80578;SDS011;69939;52.402;6.608;2023-06-22T13:43:55;12.90;;;9.50;;
80578;SDS011;69939;52.402;6.608;2023-06-22T13:46:24;12.88;;;10.18;;
80578;SDS011;69939;52.402;6.608;2023-06-22T13:48:50;14.57;;;10.15;;
80578;SDS011;69939;52.402;6.608;2023-06-22T13:51:17;15.27;;;10.27;;
80578;SDS011;69939;52.402;6.608;2023-06-22T13:53:43;12.57;;;10.13;;
80578;SDS011;69939;52.402;6.608;2023-06-22T13:56:10;14.02;;;10.85;;
80578;SDS011;69939;52.402;6.608;2023-06-22T13:58:37;12.57;;;9.98;;
80578;SDS011;69939;52.402;6.608;2023-06-22T14:01:04;15.52;;;11.00;;
80578;SDS011;69939;52.402;6.608;2023-06-22T14:03:32;8.75;;;6.43;;
80578;SDS011;69939;52.402;6.608;2023-06-22T14:05:58;14.20;;;9.43;;
80578;SDS011;69939;52.402;6.608;2023-06-22T14:08:25;12.68;;;9.77;;
80578;SDS011;69939;52.402;6.608;2023-06-22T14:10:52;9.95;;;7.60;;
80578;SDS011;69939;52.402;6.608;2023-06-22T14:13:19;13.82;;;10.60;;
80578;SDS011;69939;52.402;6.608;2023-06-22T14:15:46;10.98;;;7.30;;
80578;SDS011;69939;52.402;6.608;2023-06-22T14:18:14;9.25;;;7.40;;
80578;SDS011;69939;52.402;6.608;2023-06-22T14:20:42;12.43;;;8.77;;
80578;SDS011;69939;52.402;6.608;2023-06-22T14:23:09;13.00;;;10.25;;
80578;SDS011;69939;52.402;6.608;2023-06-22T14:25:36;12.85;;;9.48;;
80578;SDS011;69939;52.402;6.608;2023-06-22T14:28:02;12.25;;;10.55;;
80578;SDS011;69939;52.402;6.608;2023-06-22T14:30:29;12.85;;;9.10;;
80578;SDS011;69939;52.402;6.608;2023-06-22T14:32:56;8.20;;;5.22;;
80578;SDS011;69939;52.402;6.608;2023-06-22T14:35:26;11.95;;;8.63;;
80578;SDS011;69939;52.402;6.608;2023-06-22T14:37:54;12.55;;;9.45;;
80578;SDS011;69939;52.402;6.608;2023-06-22T14:40:20;13.60;;;10.10;;
80578;SDS011;69939;52.402;6.608;2023-06-22T14:42:47;14.15;;;10.48;;
80578;SDS011;69939;52.402;6.608;2023-06-22T14:45:14;14.05;;;11.15;;
80578;SDS011;69939;52.402;6.608;2023-06-22T14:47:41;13.38;;;9.57;;
80578;SDS011;69939;52.402;6.608;2023-06-22T14:50:08;11.07;;;7.78;;
80578;SDS011;69939;52.402;6.608;2023-06-22T14:52:35;9.57;;;8.27;;
80578;SDS011;69939;52.402;6.608;2023-06-22T14:55:03;12.50;;;9.27;;